createdAt,value
2022-12-27T00:00:01.580Z,0.80
2022-12-27T00:02:29.106Z,1.77
2022-12-27T00:04:56.355Z,1.63
2022-12-27T00:07:23.303Z,1.02
2022-12-27T00:09:50.393Z,1.38
2022-12-27T00:12:17.395Z,1.23
2022-12-27T00:14:44.513Z,1.23
2022-12-27T00:17:11.482Z,2.00
2022-12-27T00:19:38.592Z,0.82
2022-12-27T00:22:05.717Z,1.20
2022-12-27T00:24:33.078Z,1.10
2022-12-27T00:27:00.132Z,2.20
2022-12-27T00:29:27.742Z,1.15
2022-12-27T00:31:54.927Z,0.90
2022-12-27T00:34:21.943Z,1.10
2022-12-27T00:36:49.013Z,0.93
2022-12-27T00:39:16.086Z,1.85
2022-12-27T00:41:43.065Z,0.90
2022-12-27T00:44:10.037Z,1.30
2022-12-27T00:46:37.213Z,1.48
2022-12-27T00:49:04.393Z,1.88
2022-12-27T00:51:31.853Z,1.35
2022-12-27T00:53:59.162Z,1.38
2022-12-27T00:56:28.915Z,0.75
2022-12-27T00:59:01.980Z,1.17
2022-12-27T01:01:32.167Z,0.98
2022-12-27T01:03:59.506Z,1.17
2022-12-27T01:06:29.486Z,1.20
2022-12-27T01:08:57.715Z,1.50
2022-12-27T01:11:26.952Z,1.17
2022-12-27T01:14:04.112Z,1.98
2022-12-27T01:16:32.234Z,1.02
2022-12-27T01:19:00.016Z,0.60
2022-12-27T01:21:28.113Z,1.13
2022-12-27T01:23:55.576Z,1.50
2022-12-27T01:26:24.304Z,0.80
2022-12-27T01:28:51.823Z,0.98
2022-12-27T01:31:21.828Z,1.30
2022-12-27T01:33:49.487Z,1.42
2022-12-27T01:36:19.315Z,1.15
2022-12-27T01:38:48.355Z,1.73
2022-12-27T01:41:34.974Z,0.68
2022-12-27T01:44:02.234Z,0.70
2022-12-27T01:46:30.363Z,0.55
2022-12-27T01:48:58.128Z,0.80
2022-12-27T01:51:25.415Z,0.70
2022-12-27T01:53:53.559Z,0.80
2022-12-27T01:56:28.067Z,0.80
2022-12-27T01:59:01.688Z,1.30
2022-12-27T02:01:32.947Z,1.52
2022-12-27T02:04:13.109Z,1.25
2022-12-27T02:06:40.560Z,1.38
2022-12-27T02:09:26.885Z,1.63
2022-12-27T02:11:57.171Z,1.23
2022-12-27T02:14:29.909Z,0.90
2022-12-27T02:16:59.414Z,1.42
2022-12-27T02:19:35.692Z,0.90
2022-12-27T02:22:56.390Z,1.48
2022-12-27T02:25:35.516Z,1.20
2022-12-27T02:28:33.920Z,1.30
2022-12-27T02:31:08.453Z,2.00
2022-12-27T02:33:38.224Z,1.23
2022-12-27T02:36:07.765Z,1.10
2022-12-27T02:38:38.516Z,1.92
2022-12-27T02:41:26.280Z,1.50
2022-12-27T02:44:13.556Z,1.27
2022-12-27T02:46:58.996Z,1.42
2022-12-27T02:53:03.334Z,1.92
2022-12-27T02:56:23.263Z,0.82
2022-12-27T02:59:38.274Z,1.13
2022-12-27T03:02:38.030Z,1.30
2022-12-27T03:05:35.705Z,1.25
2022-12-27T03:08:12.134Z,0.98
2022-12-27T03:11:13.028Z,1.50
2022-12-27T03:14:04.395Z,1.00
2022-12-27T03:16:56.463Z,1.50
2022-12-27T03:19:54.153Z,1.92
2022-12-27T03:22:42.484Z,1.10
2022-12-27T03:25:28.350Z,0.73
2022-12-27T03:28:36.664Z,1.85
2022-12-27T03:31:26.484Z,1.15
2022-12-27T03:34:04.735Z,0.70
2022-12-27T03:36:52.504Z,1.67
2022-12-27T03:39:35.110Z,2.00
2022-12-27T03:42:27.225Z,0.80
2022-12-27T03:44:54.940Z,1.00
2022-12-27T03:47:25.363Z,1.20
2022-12-27T03:50:25.619Z,1.17
2022-12-27T03:52:59.536Z,1.40
2022-12-27T03:55:33.042Z,1.13
2022-12-27T03:58:00.464Z,1.52
2022-12-27T04:00:27.501Z,1.23
2022-12-27T04:02:55.015Z,1.75
2022-12-27T04:05:23.309Z,1.80
2022-12-27T04:08:09.130Z,1.02
2022-12-27T04:10:54.738Z,1.17
2022-12-27T04:13:40.074Z,1.10
2022-12-27T04:16:26.021Z,1.35
2022-12-27T04:19:11.732Z,1.40
2022-12-27T04:21:57.476Z,1.17
2022-12-27T04:24:42.993Z,0.90
2022-12-27T04:27:28.266Z,1.40
2022-12-27T04:30:14.117Z,0.80
2022-12-27T04:32:59.734Z,1.05
2022-12-27T04:35:26.763Z,1.00
2022-12-27T04:37:53.913Z,1.35
2022-12-27T04:40:39.796Z,1.67
2022-12-27T04:43:27.015Z,0.85
2022-12-27T04:46:13.699Z,1.33
2022-12-27T04:48:59.819Z,1.00
2022-12-27T04:51:46.129Z,0.85
2022-12-27T04:54:38.641Z,1.00
2022-12-27T04:57:06.177Z,1.08
2022-12-27T04:59:51.863Z,1.52
2022-12-27T05:02:19.828Z,0.90
2022-12-27T05:04:47.627Z,1.05
2022-12-27T05:07:33.803Z,1.10
2022-12-27T05:10:21.397Z,1.20
2022-12-27T05:13:06.865Z,1.10
2022-12-27T05:15:34.421Z,1.00
2022-12-27T05:18:01.248Z,1.33
2022-12-27T05:20:28.262Z,0.88
2022-12-27T05:23:13.599Z,0.95
2022-12-27T05:25:42.293Z,0.52
2022-12-27T05:28:11.164Z,0.95
2022-12-27T05:30:40.372Z,1.02
2022-12-27T05:33:07.513Z,1.00
2022-12-27T05:35:35.431Z,1.10
2022-12-27T05:38:03.403Z,1.45
2022-12-27T05:40:30.455Z,1.00
2022-12-27T05:43:02.085Z,0.85
2022-12-27T05:45:29.916Z,1.00
2022-12-27T05:47:57.037Z,0.90
2022-12-27T05:50:24.164Z,0.93
2022-12-27T05:52:52.196Z,1.05
2022-12-27T05:55:19.193Z,0.93
2022-12-27T05:57:46.103Z,0.85
2022-12-27T06:00:14.034Z,0.80
2022-12-27T06:02:42.901Z,1.25
2022-12-27T06:05:10.783Z,1.58
2022-12-27T06:07:39.269Z,1.30
2022-12-27T06:10:09.294Z,1.27
2022-12-27T06:12:37.201Z,0.70
2022-12-27T06:15:05.906Z,1.42
2022-12-27T06:17:33.394Z,1.30
2022-12-27T06:20:00.290Z,1.13
2022-12-27T06:22:27.200Z,0.90
2022-12-27T06:24:54.632Z,1.23
2022-12-27T06:27:21.465Z,1.40
2022-12-27T06:29:48.917Z,1.58
2022-12-27T06:32:18.092Z,0.98
2022-12-27T06:34:46.089Z,1.55
2022-12-27T06:37:13.044Z,1.20
2022-12-27T06:39:40.079Z,1.58
2022-12-27T06:42:07.392Z,1.33
2022-12-27T06:44:34.791Z,1.10
2022-12-27T06:47:01.873Z,1.10
2022-12-27T06:49:29.623Z,1.42
2022-12-27T06:51:59.702Z,3.58
2022-12-27T06:54:27.365Z,1.90
2022-12-27T06:56:55.793Z,1.33
2022-12-27T06:59:23.725Z,1.40
2022-12-27T07:01:50.785Z,1.00
2022-12-27T07:04:18.075Z,1.10
2022-12-27T07:06:45.225Z,0.95
2022-12-27T07:09:12.787Z,1.40
2022-12-27T07:11:39.932Z,1.20
2022-12-27T07:14:09.463Z,1.85
2022-12-27T07:16:37.229Z,1.52
2022-12-27T07:19:04.524Z,1.58
2022-12-27T07:21:31.984Z,1.27
2022-12-27T07:23:59.035Z,0.90
2022-12-27T07:26:30.416Z,1.10
2022-12-27T07:28:59.931Z,0.73
2022-12-27T07:31:29.946Z,1.20
2022-12-27T07:33:58.496Z,2.10
2022-12-27T07:36:27.122Z,1.27
2022-12-27T07:38:55.273Z,1.23
2022-12-27T07:41:22.293Z,1.27
2022-12-27T07:43:49.392Z,1.73
2022-12-27T07:46:18.862Z,1.25
2022-12-27T07:48:47.490Z,1.27
2022-12-27T07:51:16.266Z,1.20
2022-12-27T07:53:43.717Z,0.88
2022-12-27T07:56:25.217Z,1.00
2022-12-27T07:58:54.661Z,0.73
2022-12-27T08:01:22.636Z,0.85
2022-12-27T08:03:50.283Z,1.58
2022-12-27T08:06:26.270Z,1.00
2022-12-27T08:08:54.998Z,2.08
2022-12-27T08:11:22.114Z,2.88
2022-12-27T08:13:49.443Z,1.58
2022-12-27T08:16:21.747Z,0.90
2022-12-27T08:18:48.987Z,1.35
2022-12-27T08:21:16.553Z,4.30
2022-12-27T08:23:43.624Z,1.00
2022-12-27T08:26:11.133Z,1.65
2022-12-27T08:28:38.296Z,1.08
2022-12-27T08:31:10.633Z,1.77
2022-12-27T08:33:38.274Z,10.45
2022-12-27T08:38:58.895Z,31.83
2022-12-27T08:41:25.947Z,25.05
2022-12-27T08:43:53.418Z,47.00
2022-12-27T08:46:20.317Z,20.33
2022-12-27T08:48:51.775Z,14.82
2022-12-27T08:51:30.245Z,7.32
2022-12-27T08:53:58.680Z,7.30
2022-12-27T08:56:25.973Z,4.57
2022-12-27T08:58:53.459Z,6.28
2022-12-27T09:01:20.480Z,2.97
2022-12-27T09:03:47.604Z,3.67
2022-12-27T09:06:17.117Z,3.15
2022-12-27T09:08:46.171Z,2.65
2022-12-27T09:11:22.378Z,5.57
2022-12-27T09:13:49.659Z,3.58
2022-12-27T09:16:29.873Z,2.58
2022-12-27T09:18:58.614Z,2.97
2022-12-27T09:21:28.272Z,4.32
2022-12-27T09:23:56.189Z,3.20
2022-12-27T09:26:26.344Z,3.30
2022-12-27T09:28:54.625Z,2.72
2022-12-27T09:31:22.866Z,3.25
2022-12-27T09:33:51.004Z,3.65
2022-12-27T09:36:20.309Z,4.00
2022-12-27T09:38:48.253Z,3.35
2022-12-27T09:44:44.152Z,2.47
2022-12-27T09:47:15.824Z,3.40
2022-12-27T09:49:46.322Z,4.07
2022-12-27T09:52:18.030Z,5.30
2022-12-27T09:54:44.700Z,4.25
2022-12-27T09:57:24.082Z,5.85
2022-12-27T09:59:57.484Z,4.53
2022-12-27T10:02:26.845Z,3.30
2022-12-27T10:08:09.237Z,2.40
2022-12-27T10:10:44.969Z,2.42
2022-12-27T10:13:30.246Z,1.65
2022-12-27T10:16:15.909Z,2.00
2022-12-27T10:19:10.741Z,2.67
2022-12-27T10:21:49.172Z,1.83
2022-12-27T10:24:20.188Z,2.15
2022-12-27T10:26:47.305Z,2.50
2022-12-27T10:29:18.574Z,3.05
2022-12-27T10:31:46.195Z,2.58
2022-12-27T10:34:15.625Z,2.42
2022-12-27T10:36:43.703Z,2.67
2022-12-27T10:39:31.093Z,7.60
2022-12-27T10:42:08.914Z,2.55
2022-12-27T10:44:36.468Z,3.53
2022-12-27T10:47:03.961Z,4.15
2022-12-27T10:49:33.190Z,2.58
2022-12-27T10:52:20.607Z,2.55
2022-12-27T10:54:53.062Z,3.20
2022-12-27T10:57:32.586Z,2.63
2022-12-27T11:00:17.838Z,2.22
2022-12-27T11:05:27.772Z,2.80
2022-12-27T11:10:28.174Z,2.85
2022-12-27T11:13:03.083Z,2.28
2022-12-27T11:15:38.734Z,2.78
2022-12-27T11:18:17.686Z,2.67
2022-12-27T11:23:20.427Z,2.70
2022-12-27T11:25:58.049Z,2.55
2022-12-27T11:28:38.633Z,2.08
2022-12-27T11:31:09.568Z,5.40
2022-12-27T11:33:39.875Z,2.67
2022-12-27T11:36:09.388Z,3.15
2022-12-27T11:38:38.283Z,2.78
2022-12-27T11:41:15.527Z,2.40
2022-12-27T11:43:56.624Z,10.95
2022-12-27T11:46:39.916Z,2.92
2022-12-27T11:49:12.424Z,4.88
2022-12-27T11:52:23.943Z,10.25
2022-12-27T11:55:12.624Z,4.25
2022-12-27T11:58:07.492Z,8.20
2022-12-27T12:00:53.165Z,4.38
2022-12-27T12:03:45.263Z,3.92
2022-12-27T12:06:31.443Z,3.92
2022-12-27T12:09:19.113Z,3.80
2022-12-27T12:12:03.304Z,3.13
2022-12-27T12:14:33.568Z,3.78
2022-12-27T12:17:13.312Z,3.60
2022-12-27T12:20:04.785Z,3.53
2022-12-27T12:22:42.698Z,3.45
2022-12-27T12:25:28.648Z,5.82
2022-12-27T12:29:00.088Z,4.90
2022-12-27T12:31:35.756Z,4.90
2022-12-27T12:34:25.266Z,4.00
2022-12-27T12:37:04.174Z,4.90
2022-12-27T12:39:43.326Z,4.28
2022-12-27T12:44:46.648Z,4.25
2022-12-27T12:47:43.448Z,10.32
2022-12-27T12:50:36.613Z,7.53
2022-12-27T12:53:22.549Z,4.22
2022-12-27T12:55:59.211Z,5.45
2022-12-27T12:58:45.344Z,4.85
2022-12-27T13:01:30.753Z,6.20
2022-12-27T13:07:47.235Z,3.42
2022-12-27T13:10:33.574Z,5.40
2022-12-27T13:13:10.909Z,3.63
2022-12-27T13:16:03.446Z,5.47
2022-12-27T13:18:52.178Z,3.85
2022-12-27T13:21:28.145Z,3.53
2022-12-27T13:24:14.511Z,5.13
2022-12-27T13:27:02.541Z,4.40
2022-12-27T13:29:38.065Z,3.80
2022-12-27T13:32:08.413Z,3.95
2022-12-27T13:34:58.976Z,3.45
2022-12-27T13:37:50.587Z,3.78
2022-12-27T13:43:00.911Z,3.10
2022-12-27T13:45:46.626Z,3.78
2022-12-27T13:48:35.079Z,3.30
2022-12-27T13:51:11.010Z,3.10
2022-12-27T13:53:53.005Z,3.83
2022-12-27T13:56:54.593Z,4.03
2022-12-27T13:59:40.822Z,2.95
2022-12-27T14:02:23.096Z,3.00
2022-12-27T14:05:02.554Z,3.20
2022-12-27T14:08:11.666Z,3.35
2022-12-27T14:10:55.265Z,3.95
2022-12-27T14:13:33.644Z,3.65
2022-12-27T14:16:12.840Z,2.50
2022-12-27T14:19:12.380Z,2.95
2022-12-27T14:22:11.952Z,4.45
2022-12-27T14:25:01.756Z,2.67
2022-12-27T14:27:44.279Z,3.58
2022-12-27T14:30:30.925Z,3.05
2022-12-27T14:33:03.994Z,3.83
2022-12-27T14:36:00.165Z,3.45
2022-12-27T14:38:52.154Z,3.75
2022-12-27T14:41:38.056Z,2.97
2022-12-27T14:45:00.874Z,6.22
2022-12-27T14:47:42.996Z,3.40
2022-12-27T14:50:38.596Z,3.75
2022-12-27T14:53:30.617Z,3.67
2022-12-27T14:56:20.886Z,3.88
2022-12-27T14:59:10.052Z,3.33
2022-12-27T15:02:20.220Z,3.10
2022-12-27T15:04:56.398Z,3.30
2022-12-27T15:07:42.788Z,3.85
2022-12-27T15:10:28.532Z,3.25
2022-12-27T15:13:19.142Z,3.83
2022-12-27T15:16:23.780Z,4.10
2022-12-27T15:21:59.420Z,3.58
2022-12-27T15:24:52.368Z,4.05
2022-12-27T15:27:44.052Z,5.50
2022-12-27T15:30:41.350Z,4.75
2022-12-27T15:33:29.461Z,5.72
2022-12-27T15:36:04.608Z,5.70
2022-12-27T15:38:53.330Z,4.68
2022-12-27T15:41:23.031Z,7.40
2022-12-27T15:44:11.560Z,5.45
2022-12-27T15:47:11.187Z,5.53
2022-12-27T15:50:07.465Z,5.95
2022-12-27T15:52:59.123Z,5.57
2022-12-27T15:55:35.449Z,6.40
2022-12-27T15:58:08.707Z,5.78
2022-12-27T16:00:36.563Z,5.13
2022-12-27T16:03:36.007Z,6.28
2022-12-27T16:06:05.486Z,7.28
2022-12-27T16:08:34.516Z,7.50
2022-12-27T16:11:03.755Z,5.65
2022-12-27T16:13:41.798Z,5.00
2022-12-27T16:16:33.662Z,6.13
2022-12-27T16:19:14.120Z,5.75
2022-12-27T16:21:43.520Z,5.05
2022-12-27T16:24:22.619Z,4.97
2022-12-27T16:27:17.820Z,4.60
2022-12-27T16:29:45.046Z,5.38
2022-12-27T16:32:21.964Z,5.40
2022-12-27T16:34:52.150Z,9.70
2022-12-27T16:37:31.425Z,5.25
2022-12-27T16:40:05.194Z,8.20
2022-12-27T16:43:09.933Z,4.70
2022-12-27T16:45:40.070Z,4.60
2022-12-27T16:48:12.928Z,5.68
2022-12-27T16:50:51.168Z,4.60
2022-12-27T16:53:32.734Z,5.40
2022-12-27T16:56:12.478Z,5.10
2022-12-27T16:58:40.028Z,3.92
2022-12-27T17:01:31.422Z,4.55
2022-12-27T17:03:59.227Z,4.30
2022-12-27T17:06:33.999Z,6.28
2022-12-27T17:09:10.844Z,3.38
2022-12-27T17:11:50.241Z,4.50
2022-12-27T17:16:52.214Z,2.95
2022-12-27T17:19:41.325Z,3.90
2022-12-27T17:22:13.816Z,3.88
2022-12-27T17:24:41.965Z,4.15
2022-12-27T17:27:36.663Z,4.25
2022-12-27T17:30:20.629Z,3.00
2022-12-27T17:33:09.567Z,4.35
2022-12-27T17:35:55.185Z,3.92
2022-12-27T17:38:38.552Z,5.75
2022-12-27T17:41:18.906Z,4.57
2022-12-27T17:44:07.473Z,3.53
2022-12-27T17:46:47.227Z,4.13
2022-12-27T17:49:15.587Z,3.00
2022-12-27T17:52:04.269Z,3.97
2022-12-27T17:54:51.127Z,3.90
2022-12-27T17:57:38.248Z,4.03
2022-12-27T18:00:07.198Z,3.10
2022-12-27T18:02:40.226Z,4.90
2022-12-27T18:05:13.297Z,4.18
2022-12-27T18:07:41.027Z,4.25
2022-12-27T18:10:15.585Z,3.55
2022-12-27T18:12:44.405Z,3.47
2022-12-27T18:15:15.317Z,3.70
2022-12-27T18:17:43.964Z,2.92
2022-12-27T18:20:26.295Z,3.25
2022-12-27T18:23:12.263Z,3.08
2022-12-27T18:25:45.404Z,3.20
2022-12-27T18:28:16.538Z,3.10
2022-12-27T18:30:54.457Z,2.92
2022-12-27T18:33:48.067Z,2.35
2022-12-27T18:36:30.752Z,2.72
2022-12-27T18:39:20.317Z,2.42
2022-12-27T18:41:50.642Z,3.03
2022-12-27T18:44:49.976Z,2.25
2022-12-27T18:47:20.709Z,2.65
2022-12-27T18:50:01.803Z,3.28
2022-12-27T18:52:35.247Z,3.42
2022-12-27T18:55:29.228Z,3.28
2022-12-27T18:58:20.579Z,2.50
2022-12-27T19:03:19.611Z,2.70
2022-12-27T19:06:04.492Z,2.20
2022-12-27T19:08:40.766Z,3.58
2022-12-27T19:11:08.353Z,2.47
2022-12-27T19:13:42.811Z,2.60
2022-12-27T19:16:25.494Z,2.58
2022-12-27T19:18:55.054Z,2.30
2022-12-27T19:21:34.943Z,3.85
2022-12-27T19:24:22.142Z,2.83
2022-12-27T19:26:50.266Z,3.15
2022-12-27T19:29:20.145Z,3.88
2022-12-27T19:31:59.351Z,3.03
2022-12-27T19:34:30.086Z,3.08
2022-12-27T19:36:57.636Z,2.90
2022-12-27T19:39:24.864Z,3.25
2022-12-27T19:41:52.260Z,7.15
2022-12-27T19:44:20.051Z,3.45
2022-12-27T19:46:47.632Z,3.28
2022-12-27T19:49:41.470Z,3.65
2022-12-27T19:52:01.744Z,3.38
2022-12-27T19:54:29.799Z,3.13
2022-12-27T19:56:57.144Z,2.88
2022-12-27T19:59:25.246Z,2.97
2022-12-27T20:01:53.177Z,3.53
2022-12-27T20:04:20.684Z,3.67
2022-12-27T20:06:48.799Z,3.15
2022-12-27T20:09:18.079Z,3.92
2022-12-27T20:11:45.466Z,2.63
2022-12-27T20:14:14.860Z,2.55
2022-12-27T20:16:41.959Z,2.72
2022-12-27T20:19:13.691Z,4.05
2022-12-27T20:21:40.705Z,2.72
2022-12-27T20:24:11.127Z,2.90
2022-12-27T20:26:38.495Z,2.30
2022-12-27T20:29:05.668Z,3.15
2022-12-27T20:31:32.887Z,12.70
2022-12-27T20:34:00.037Z,14.60
2022-12-27T20:36:27.207Z,6.57
2022-12-27T20:38:54.140Z,8.45
2022-12-27T20:41:21.731Z,10.80
2022-12-27T20:43:54.410Z,6.95
2022-12-27T20:48:48.794Z,5.55
2022-12-27T20:51:18.952Z,6.28
2022-12-27T20:53:49.435Z,7.90
2022-12-27T20:56:16.928Z,5.80
2022-12-27T20:58:43.992Z,4.63
2022-12-27T21:01:14.116Z,3.97
2022-12-27T21:03:41.844Z,2.72
2022-12-27T21:06:17.548Z,3.15
2022-12-27T21:08:50.594Z,3.47
2022-12-27T21:11:27.266Z,4.10
2022-12-27T21:13:55.871Z,4.53
2022-12-27T21:16:25.835Z,3.35
2022-12-27T21:18:53.225Z,2.70
2022-12-27T21:21:27.340Z,3.40
2022-12-27T21:23:55.427Z,4.45
2022-12-27T21:26:25.422Z,2.80
2022-12-27T21:28:53.218Z,3.50
2022-12-27T21:31:20.619Z,3.63
2022-12-27T21:33:48.546Z,3.45
2022-12-27T21:36:21.562Z,2.80
2022-12-27T21:38:49.721Z,2.53
2022-12-27T21:41:27.727Z,2.35
2022-12-27T21:43:54.860Z,4.10
2022-12-27T21:46:34.139Z,3.20
2022-12-27T21:49:06.370Z,3.25
2022-12-27T21:51:34.998Z,3.67
2022-12-27T21:54:02.570Z,3.03
2022-12-27T21:56:30.036Z,6.18
2022-12-27T21:58:59.069Z,3.55
2022-12-27T22:01:28.935Z,3.53
2022-12-27T22:03:57.197Z,3.33
2022-12-27T22:06:25.305Z,3.85
2022-12-27T22:08:54.712Z,4.53
2022-12-27T22:11:22.590Z,3.63
2022-12-27T22:13:50.066Z,3.35
2022-12-27T22:16:20.371Z,5.30
2022-12-27T22:18:48.265Z,3.42
2022-12-27T22:21:19.008Z,3.63
2022-12-27T22:23:48.539Z,3.72
2022-12-27T22:26:18.328Z,4.57
2022-12-27T22:28:45.716Z,6.03
2022-12-27T22:31:15.324Z,3.78
2022-12-27T22:33:42.527Z,6.30
2022-12-27T22:36:12.615Z,3.60
2022-12-27T22:38:40.751Z,4.25
2022-12-27T22:41:11.266Z,4.47
2022-12-27T22:43:39.496Z,4.68
2022-12-27T22:46:13.351Z,4.32
2022-12-27T22:48:40.870Z,3.33
2022-12-27T22:51:14.137Z,4.07
2022-12-27T22:53:41.676Z,3.05
2022-12-27T22:56:16.597Z,3.78
2022-12-27T22:58:44.213Z,3.90
2022-12-27T23:01:15.969Z,3.90
2022-12-27T23:03:43.446Z,2.17
2022-12-27T23:06:12.514Z,3.35
2022-12-27T23:08:40.584Z,3.50
2022-12-27T23:11:12.117Z,3.58
2022-12-27T23:13:39.971Z,4.03
2022-12-27T23:16:07.698Z,3.30
2022-12-27T23:18:36.882Z,5.20
2022-12-27T23:21:20.441Z,4.10
2022-12-27T23:23:50.909Z,4.65
2022-12-27T23:26:20.624Z,4.18
2022-12-27T23:28:48.837Z,3.10
2022-12-27T23:31:16.780Z,6.55
2022-12-27T23:33:45.129Z,4.53
2022-12-27T23:36:13.096Z,7.78
2022-12-27T23:38:43.965Z,5.20
2022-12-27T23:41:19.927Z,5.15
2022-12-27T23:43:53.403Z,3.88
2022-12-27T23:46:27.876Z,6.45
2022-12-27T23:48:56.209Z,8.32
2022-12-27T23:51:23.833Z,4.70
2022-12-27T23:53:51.246Z,4.30
2022-12-27T23:56:20.692Z,4.65
2022-12-27T23:58:48.712Z,4.50
